Urb Blvd del Rio I, Puerto Rico
Current Conditions -  °F | °C
As of 8:56 PM on Saturday 25 Oct 2014 (Local Time) from TJSJ Reporting Station
Few Clouds Few Clouds  
Wind Chill: 83°   Ceiling: Unl
Heat Index: 91°   Visibility: 10mi
Dew Point: 76°   Wind: 5mph
Humidity: 79%   Direction: 170°S
Pressure: 29.9"   Gusts: NA
Location:  18.3885°N, 66.115°W
Report Text: TJSJ 260056Z 17004KT 10SM FEW026 28/24 A2990 RMK AO2 SLP122 T02830244
Loading
Personal Weather Stations






























Interactive Weather Map
Tropical Storm Tracking
New forecast layout! Learn more

10-Day Weather Forecast

Advertisements
Track Severe Weather on mobile